Time;durP1;ratioP1;P1;durP2;ratioP2;P2;SDS_P1;SDS_P2;PMS_P1;PMS_P2;Temp;Humidity;BMP_temperature;BMP_pressure;BME280_temperature;BME280_humidity;BME280_pressure;Samples;Min_cycle;Max_cycle;Signal;HPM_P1;HPM_P2
2023/07/26 00:01:17;;;;;;;2.27;1.90;;;;;17.40;95795.00;;;;5065233;28;20196;-85
2023/07/26 00:04:08;;;;;;;2.27;1.60;;;;;17.30;95790.00;;;;5055382;28;20266;-86
2023/07/26 00:06:57;;;;;;;4.63;1.70;;;;;17.20;95806.00;;;;5065367;28;20670;-87
2023/07/26 00:09:46;;;;;;;5.93;1.57;;;;;17.40;95810.00;;;;5066970;28;20219;-86
2023/07/26 00:12:35;;;;;;;1.70;1.47;;;;;17.50;95817.00;;;;5059869;28;20204;-86
2023/07/26 00:15:24;;;;;;;1.63;0.90;;;;;17.30;95834.00;;;;5059622;28;20216;-87
2023/07/26 00:18:13;;;;;;;2.27;1.27;;;;;17.10;95827.00;;;;5065200;28;20564;-87
2023/07/26 00:21:04;;;;;;;3.27;1.77;;;;;17.30;95837.00;;;;5065621;28;20196;-87
2023/07/26 00:23:53;;;;;;;2.13;1.37;;;;;17.20;95834.00;;;;5066637;28;20209;-88
2023/07/26 00:26:42;;;;;;;1.40;1.30;;;;;17.40;95832.00;;;;5062766;28;20219;-87
2023/07/26 00:29:32;;;;;;;2.10;1.50;;;;;17.40;95823.00;;;;5068275;28;20223;-87
2023/07/26 00:32:21;;;;;;;1.60;1.00;;;;;17.30;95833.00;;;;5061480;28;20204;-87
2023/07/26 00:35:18;;;;;;;4.23;1.20;;;;;17.30;95839.00;;;;5064133;28;20219;-89
2023/07/26 00:38:08;;;;;;;2.07;1.37;;;;;17.00;95845.00;;;;5066727;28;20200;-87
2023/07/26 00:40:57;;;;;;;2.80;1.60;;;;;16.90;95857.00;;;;5065594;28;20222;-87
2023/07/26 00:43:46;;;;;;;7.13;1.50;;;;;16.90;95861.00;;;;5066810;28;20811;-87
2023/07/26 00:46:35;;;;;;;4.87;1.60;;;;;17.10;95866.00;;;;5064043;28;20203;-87
2023/07/26 00:49:24;;;;;;;1.30;1.20;;;;;17.10;95874.00;;;;5061885;28;20721;-86
2023/07/26 00:52:13;;;;;;;4.40;1.23;;;;;17.20;95877.00;;;;5068452;28;20200;-87
2023/07/26 00:55:04;;;;;;;3.33;1.27;;;;;17.10;95874.00;;;;5061330;28;20220;-86
2023/07/26 00:57:54;;;;;;;1.27;1.17;;;;;17.10;95886.00;;;;5067530;28;20203;-87
2023/07/26 01:00:45;;;;;;;1.40;1.30;;;;;17.00;95883.00;;;;5059029;28;20186;-88
2023/07/26 01:03:34;;;;;;;1.93;1.30;;;;;16.90;95880.00;;;;5066651;28;20211;-88
2023/07/26 01:06:30;;;;;;;1.50;1.10;;;;;17.20;95879.00;;;;5063532;28;20218;-88
2023/07/26 01:09:28;;;;;;;2.67;1.23;;;;;17.30;95890.00;;;;5065537;28;20579;-85
2023/07/26 01:12:21;;;;;;;2.33;1.67;;;;;17.30;95896.00;;;;5059560;28;20196;-87
2023/07/26 01:15:13;;;;;;;2.93;1.10;;;;;17.30;95906.00;;;;5061094;28;20226;-87
2023/07/26 01:18:10;;;;;;;1.60;1.00;;;;;17.30;95914.00;;;;5063591;28;20219;-87
2023/07/26 01:21:00;;;;;;;2.93;1.40;;;;;17.10;95922.00;;;;5058553;28;20685;-86
2023/07/26 01:23:50;;;;;;;0.93;0.93;;;;;16.90;95922.00;;;;5067095;28;20604;-87
2023/07/26 01:26:39;;;;;;;1.87;1.10;;;;;16.80;95925.00;;;;5058017;28;20208;-87
2023/07/26 01:29:28;;;;;;;3.63;1.23;;;;;16.90;95935.00;;;;5065420;28;20220;-87
2023/07/26 01:32:18;;;;;;;1.17;1.07;;;;;17.00;95941.00;;;;5063823;28;20212;-88
2023/07/26 01:35:08;;;;;;;2.20;1.80;;;;;17.10;95951.00;;;;5067768;28;20216;-85
2023/07/26 01:37:57;;;;;;;1.47;1.30;;;;;17.20;95946.00;;;;5059279;28;20210;-87
2023/07/26 01:40:49;;;;;;;3.00;1.40;;;;;17.20;95962.00;;;;5064100;28;20189;-86
2023/07/26 01:43:38;;;;;;;2.60;1.30;;;;;17.20;95963.00;;;;5064578;28;20227;-87
2023/07/26 01:46:27;;;;;;;1.00;0.80;;;;;17.20;95967.00;;;;5060707;28;20215;-86
2023/07/26 01:49:18;;;;;;;2.03;1.10;;;;;17.30;95971.00;;;;5062802;28;20202;-88
2023/07/26 01:52:07;;;;;;;1.93;1.37;;;;;17.30;95987.00;;;;5064641;28;20228;-87
2023/07/26 01:54:56;;;;;;;3.03;1.10;;;;;17.20;95985.00;;;;5063419;28;20701;-88
2023/07/26 01:57:47;;;;;;;0.90;0.90;;;;;17.10;95983.00;;;;5065152;28;20204;-89
2023/07/26 02:00:36;;;;;;;2.23;1.47;;;;;17.10;95981.00;;;;5063951;28;20208;-88
2023/07/26 02:03:25;;;;;;;2.97;1.67;;;;;17.10;95979.00;;;;5061687;28;20195;-90
2023/07/26 02:06:15;;;;;;;3.00;1.10;;;;;17.10;95981.00;;;;5066701;28;20227;-88
2023/07/26 02:09:05;;;;;;;2.00;1.30;;;;;17.20;95980.00;;;;5063679;28;20207;-88
2023/07/26 02:11:54;;;;;;;2.07;1.10;;;;;17.20;95975.00;;;;5064469;28;20216;-87
2023/07/26 02:14:45;;;;;;;6.07;1.37;;;;;17.00;95972.00;;;;5067766;28;20228;-88
2023/07/26 02:17:34;;;;;;;2.07;1.00;;;;;17.00;95980.00;;;;5066858;28;20204;-88
2023/07/26 02:20:23;;;;;;;1.10;0.80;;;;;17.10;95973.00;;;;5067021;28;20709;-88
2023/07/26 02:23:12;;;;;;;3.77;1.50;;;;;17.20;95970.00;;;;5066057;28;21024;-88
2023/07/26 02:26:01;;;;;;;2.75;1.70;;;;;17.10;95970.00;;;;5067465;28;20212;-88
2023/07/26 02:28:51;;;;;;;2.60;1.73;;;;;17.10;95964.00;;;;5064669;28;20204;-88
2023/07/26 02:31:42;;;;;;;8.20;1.40;;;;;17.10;95950.00;;;;5065900;28;20230;-88
2023/07/26 02:34:31;;;;;;;3.13;2.27;;;;;16.90;95950.00;;;;5058705;28;20232;-87
2023/07/26 02:37:20;;;;;;;3.20;1.50;;;;;16.80;95949.00;;;;5060841;28;20196;-87
2023/07/26 02:40:10;;;;;;;1.40;1.30;;;;;17.00;95941.00;;;;5068799;28;20548;-86
2023/07/26 02:42:59;;;;;;;1.83;1.20;;;;;16.90;95939.00;;;;5063976;28;20212;-85
2023/07/26 02:45:48;;;;;;;3.00;1.23;;;;;17.10;95949.00;;;;5066420;28;20228;-86
2023/07/26 02:48:39;;;;;;;2.83;1.70;;;;;17.10;95946.00;;;;5066829;28;20663;-86
2023/07/26 02:51:28;;;;;;;4.23;1.30;;;;;17.10;95945.00;;;;5065384;28;20227;-87
2023/07/26 02:54:17;;;;;;;1.73;1.30;;;;;17.20;95942.00;;;;5067475;28;20203;-87
2023/07/26 02:57:07;;;;;;;1.20;1.07;;;;;17.00;95936.00;;;;5064903;28;20206;-86
2023/07/26 02:59:56;;;;;;;1.13;1.03;;;;;17.10;95935.00;;;;5069536;28;20196;-87
2023/07/26 03:02:45;;;;;;;4.27;1.37;;;;;17.10;95929.00;;;;5068347;28;20197;-86
2023/07/26 03:05:37;;;;;;;3.70;1.50;;;;;17.10;95937.00;;;;5067426;28;20310;-87
2023/07/26 03:08:27;;;;;;;3.77;1.60;;;;;17.10;95943.00;;;;5067338;28;20203;-87
2023/07/26 03:11:16;;;;;;;1.73;1.10;;;;;17.10;95936.00;;;;5059962;28;20212;-88
2023/07/26 03:14:05;;;;;;;4.10;1.27;;;;;17.00;95936.00;;;;5057106;28;20207;-87
2023/07/26 03:16:54;;;;;;;2.83;1.27;;;;;16.90;95933.00;;;;5066663;28;20208;-87
2023/07/26 03:19:46;;;;;;;3.70;1.43;;;;;16.90;95932.00;;;;5064118;28;20200;-87
2023/07/26 03:22:36;;;;;;;3.27;2.53;;;;;16.70;95938.00;;;;5054783;28;20196;-87
2023/07/26 03:25:25;;;;;;;2.43;1.73;;;;;16.70;95939.00;;;;5060965;28;20228;-86
2023/07/26 03:28:14;;;;;;;1.07;0.80;;;;;16.50;95934.00;;;;5062016;28;20204;-88
2023/07/26 03:31:03;;;;;;;2.37;1.30;;;;;16.80;95922.00;;;;5070149;28;20738;-87
2023/07/26 03:33:52;;;;;;;7.67;1.60;;;;;16.80;95930.00;;;;5060659;28;20196;-87
2023/07/26 03:36:41;;;;;;;3.63;1.63;;;;;16.90;95925.00;;;;5060395;28;20570;-87
2023/07/26 03:39:32;;;;;;;1.67;1.30;;;;;16.80;95912.00;;;;5065170;28;20196;-87
2023/07/26 03:42:21;;;;;;;2.50;1.17;;;;;16.90;95913.00;;;;5056749;28;20614;-87
2023/07/26 03:45:10;;;;;;;2.17;1.57;;;;;16.80;95905.00;;;;5063799;28;20714;-87
2023/07/26 03:48:00;;;;;;;3.47;1.00;;;;;16.90;95909.00;;;;5066966;28;20230;-87
2023/07/26 03:50:49;;;;;;;3.70;1.20;;;;;17.00;95903.00;;;;5065633;28;20204;-86
2023/07/26 03:53:38;;;;;;;1.67;1.23;;;;;16.90;95905.00;;;;5058747;28;20216;-87
2023/07/26 03:56:28;;;;;;;1.40;1.10;;;;;16.90;95905.00;;;;5067208;28;20227;-87
2023/07/26 03:59:18;;;;;;;2.00;1.00;;;;;16.90;95903.00;;;;5060400;28;20199;-87
2023/07/26 04:02:08;;;;;;;1.03;0.90;;;;;16.90;95903.00;;;;5062045;28;20204;-87
2023/07/26 04:04:57;;;;;;;3.83;1.57;;;;;17.00;95902.00;;;;5059049;28;20226;-87
2023/07/26 04:07:46;;;;;;;2.37;1.20;;;;;16.90;95905.00;;;;5068028;28;20205;-86
2023/07/26 04:10:35;;;;;;;3.93;0.90;;;;;17.00;95916.00;;;;5064005;28;20221;-88
2023/07/26 04:13:25;;;;;;;10.20;1.33;;;;;17.00;95912.00;;;;5052858;28;20567;-87
2023/07/26 04:16:16;;;;;;;1.67;1.10;;;;;16.90;95918.00;;;;5058665;28;20223;-88
2023/07/26 04:19:05;;;;;;;1.73;1.00;;;;;16.80;95938.00;;;;5064639;28;20222;-86
2023/07/26 04:21:54;;;;;;;2.40;1.00;;;;;16.70;95941.00;;;;5056884;28;20204;-88
2023/07/26 04:24:44;;;;;;;1.17;0.87;;;;;16.60;95945.00;;;;5050461;28;20225;-87
2023/07/26 04:27:33;;;;;;;1.20;1.10;;;;;16.60;95947.00;;;;5057729;28;20207;-87
2023/07/26 04:30:23;;;;;;;1.70;1.00;;;;;16.40;95948.00;;;;5057708;28;20203;-86
2023/07/26 04:33:12;;;;;;;3.13;1.47;;;;;16.60;95936.00;;;;5061835;28;20232;-86
2023/07/26 04:36:01;;;;;;;1.00;0.90;;;;;16.80;95945.00;;;;5055541;28;20621;-88
2023/07/26 04:38:51;;;;;;;2.23;1.33;;;;;17.00;95952.00;;;;5059812;28;20208;-87
2023/07/26 04:41:40;;;;;;;1.40;1.30;;;;;16.90;95941.00;;;;5065458;28;20203;-86
2023/07/26 04:44:29;;;;;;;2.40;1.60;;;;;16.80;95934.00;;;;5063771;28;20239;-88
2023/07/26 04:47:22;;;;;;;3.00;1.73;;;;;17.10;95926.00;;;;5064441;28;20203;-88
2023/07/26 04:50:11;;;;;;;2.03;1.20;;;;;17.10;95937.00;;;;5062365;28;20227;-87
2023/07/26 04:53:00;;;;;;;0.90;0.83;;;;;16.90;95929.00;;;;5067014;28;20232;-88
2023/07/26 04:55:51;;;;;;;1.70;1.20;;;;;16.60;95955.00;;;;5053732;28;20686;-87
2023/07/26 04:58:40;;;;;;;9.83;1.77;;;;;16.50;95963.00;;;;5064652;28;20204;-87
2023/07/26 05:01:29;;;;;;;1.40;1.30;;;;;16.50;95980.00;;;;5065905;28;20208;-85
2023/07/26 05:04:19;;;;;;;1.83;1.17;;;;;16.70;95998.00;;;;5057657;28;20197;-86
2023/07/26 05:07:09;;;;;;;3.57;1.07;;;;;16.90;96001.00;;;;5067455;28;20212;-87
2023/07/26 05:09:58;;;;;;;1.27;1.17;;;;;17.10;95994.00;;;;5061820;28;20203;-87
2023/07/26 05:12:47;;;;;;;4.60;2.20;;;;;17.20;96003.00;;;;5066344;28;20231;-87
2023/07/26 05:15:37;;;;;;;3.67;1.57;;;;;17.30;95995.00;;;;5064963;28;20817;-89
2023/07/26 05:18:26;;;;;;;1.47;1.30;;;;;17.40;95987.00;;;;5061383;28;20211;-87
2023/07/26 05:21:16;;;;;;;2.73;1.13;;;;;17.50;95987.00;;;;5060415;28;20206;-88
2023/07/26 05:24:07;;;;;;;1.63;1.00;;;;;17.10;95987.00;;;;5063366;28;20200;-91
2023/07/26 05:26:58;;;;;;;1.30;1.13;;;;;16.90;95996.00;;;;5062561;28;20215;-88
2023/07/26 05:29:47;;;;;;;3.60;1.20;;;;;16.70;95995.00;;;;5064292;28;20207;-88
2023/07/26 05:32:36;;;;;;;3.50;1.70;;;;;17.00;95995.00;;;;5064327;28;20235;-88
2023/07/26 05:35:25;;;;;;;1.20;1.10;;;;;17.00;95992.00;;;;5061946;28;20845;-87
2023/07/26 05:38:15;;;;;;;2.90;1.43;;;;;17.30;96002.00;;;;5064249;28;20215;-88
2023/07/26 05:41:05;;;;;;;2.00;1.10;;;;;17.50;95994.00;;;;5059046;28;20270;-88
2023/07/26 05:43:54;;;;;;;2.73;1.20;;;;;17.50;96000.00;;;;5064246;28;20625;-88
2023/07/26 05:46:43;;;;;;;1.27;1.17;;;;;17.40;95989.00;;;;5058950;28;20204;-86
2023/07/26 05:49:33;;;;;;;1.20;1.10;;;;;17.70;95989.00;;;;5065419;28;20226;-87
2023/07/26 05:52:22;;;;;;;4.30;1.17;;;;;17.90;96002.00;;;;5066601;28;20215;-85
2023/07/26 05:55:13;;;;;;;2.43;1.47;;;;;17.90;96008.00;;;;5060383;28;20230;-88
2023/07/26 05:58:02;;;;;;;1.40;1.07;;;;;17.50;96020.00;;;;5067270;28;20206;-88
2023/07/26 06:00:51;;;;;;;1.80;1.37;;;;;17.40;96021.00;;;;5064744;28;20680;-86
2023/07/26 06:03:40;;;;;;;2.63;1.40;;;;;18.00;96038.00;;;;5062653;28;20200;-87
2023/07/26 06:06:29;;;;;;;3.10;0.93;;;;;17.80;96038.00;;;;5063911;28;20228;-88
2023/07/26 06:09:20;;;;;;;1.57;1.20;;;;;17.90;96037.00;;;;5064157;28;20203;-87
2023/07/26 06:12:11;;;;;;;1.10;1.00;;;;;18.10;96039.00;;;;5062552;28;20230;-87
2023/07/26 06:15:00;;;;;;;2.13;1.07;;;;;18.30;96040.00;;;;5064496;28;20224;-87
2023/07/26 06:17:50;;;;;;;1.10;1.00;;;;;17.90;96044.00;;;;5064659;28;20211;-88
2023/07/26 06:20:39;;;;;;;1.23;1.10;;;;;17.60;96059.00;;;;5063939;28;20216;-88
2023/07/26 06:23:28;;;;;;;1.80;1.13;;;;;17.80;96055.00;;;;5062384;28;20215;-86
2023/07/26 06:26:17;;;;;;;1.80;1.53;;;;;18.10;96058.00;;;;5059701;28;20231;-88
2023/07/26 06:29:08;;;;;;;1.60;1.10;;;;;17.90;96064.00;;;;5064009;28;20197;-87
2023/07/26 06:31:57;;;;;;;1.60;1.10;;;;;18.20;96078.00;;;;5060529;28;20212;-87
2023/07/26 06:34:46;;;;;;;1.43;1.10;;;;;18.10;96078.00;;;;5061522;28;20294;-88
2023/07/26 06:37:35;;;;;;;2.80;1.37;;;;;18.10;96091.00;;;;5052126;28;20243;-87
2023/07/26 06:40:24;;;;;;;3.03;1.17;;;;;18.30;96094.00;;;;5060877;28;20830;-86
2023/07/26 06:43:13;;;;;;;1.50;1.00;;;;;18.50;96100.00;;;;5060621;28;20579;-88
2023/07/26 06:46:04;;;;;;;7.23;4.97;;;;;18.10;96102.00;;;;5060593;28;20723;-87
2023/07/26 06:48:53;;;;;;;2.70;1.00;;;;;17.80;96104.00;;;;5058689;28;20208;-87
2023/07/26 06:51:42;;;;;;;3.37;1.17;;;;;17.50;96105.00;;;;5060681;28;20215;-88
2023/07/26 06:54:32;;;;;;;3.33;1.37;;;;;18.00;96120.00;;;;5058613;28;20243;-87
2023/07/26 06:57:21;;;;;;;1.67;1.43;;;;;18.20;96099.00;;;;5063157;28;20199;-86
2023/07/26 07:00:12;;;;;;;1.20;1.10;;;;;18.10;96109.00;;;;5063771;28;20203;-86
2023/07/26 07:03:04;;;;;;;1.17;0.80;;;;;18.70;96111.00;;;;5055573;28;20196;-88
2023/07/26 07:05:53;;;;;;;2.00;1.13;;;;;18.70;96119.00;;;;5067789;28;20216;-86
2023/07/26 07:08:42;;;;;;;0.87;0.80;;;;;18.50;96129.00;;;;5061765;28;20667;-86
2023/07/26 07:11:31;;;;;;;1.43;0.63;;;;;18.80;96129.00;;;;5063710;28;20203;-87
2023/07/26 07:14:21;;;;;;;0.63;0.63;;;;;19.10;96124.00;;;;5065124;28;20326;-87
2023/07/26 07:17:10;;;;;;;1.10;0.90;;;;;19.40;96126.00;;;;5064280;28;20219;-86
2023/07/26 07:20:00;;;;;;;1.27;0.80;;;;;19.20;96129.00;;;;5062428;28;20193;-88
2023/07/26 07:22:53;;;;;;;1.23;0.90;;;;;19.80;96134.00;;;;5064372;28;20207;-87
2023/07/26 07:25:42;;;;;;;1.37;1.27;;;;;20.20;96139.00;;;;5067646;28;20789;-86
2023/07/26 07:28:31;;;;;;;2.63;0.97;;;;;20.40;96131.00;;;;5064691;28;20290;-85
2023/07/26 07:31:20;;;;;;;2.33;0.80;;;;;20.60;96134.00;;;;5061447;28;20680;-87
2023/07/26 07:34:09;;;;;;;2.00;0.93;;;;;21.00;96138.00;;;;5059875;28;20216;-85
2023/07/26 07:37:00;;;;;;;1.57;0.90;;;;;21.00;96145.00;;;;5065141;28;20192;-87
2023/07/26 07:39:50;;;;;;;0.80;0.77;;;;;21.40;96153.00;;;;5064779;28;20235;-86
2023/07/26 07:42:39;;;;;;;2.23;0.90;;;;;21.50;96156.00;;;;5062541;28;20216;-86
2023/07/26 07:45:28;;;;;;;0.83;0.67;;;;;21.60;96161.00;;;;5061813;28;20224;-87
2023/07/26 07:48:17;;;;;;;1.17;0.83;;;;;21.10;96157.00;;;;5063189;28;20732;-87
2023/07/26 07:51:06;;;;;;;1.63;1.00;;;;;21.50;96151.00;;;;5065297;28;20200;-87
2023/07/26 07:53:57;;;;;;;0.73;0.67;;;;;20.50;96153.00;;;;5064133;28;20219;-87
2023/07/26 07:56:46;;;;;;;0.90;0.70;;;;;20.70;96147.00;;;;5063898;28;20207;-89
2023/07/26 07:59:35;;;;;;;1.47;1.03;;;;;22.10;96154.00;;;;5062615;28;20614;-86
2023/07/26 08:02:24;;;;;;;2.57;0.87;;;;;21.30;96173.00;;;;5062681;28;20211;-86
2023/07/26 08:05:13;;;;;;;1.03;0.70;;;;;21.00;96163.00;;;;5067786;28;20216;-86
2023/07/26 08:08:02;;;;;;;0.70;0.70;;;;;20.60;96164.00;;;;5063256;28;20671;-87
2023/07/26 08:10:53;;;;;;;1.83;1.00;;;;;20.10;96181.00;;;;5060864;28;20200;-86
2023/07/26 08:13:42;;;;;;;3.30;1.10;;;;;21.30;96174.00;;;;5068002;28;20223;-86
2023/07/26 08:16:31;;;;;;;2.30;0.80;;;;;20.40;96163.00;;;;5063856;28;20239;-84
2023/07/26 08:19:20;;;;;;;0.80;0.70;;;;;20.70;96165.00;;;;5070047;28;20249;-87
2023/07/26 08:22:10;;;;;;;1.03;0.73;;;;;21.00;96179.00;;;;5060194;28;20204;-86
2023/07/26 08:24:59;;;;;;;1.83;0.67;;;;;21.20;96170.00;;;;5066070;28;20220;-86
2023/07/26 08:27:50;;;;;;;0.93;0.70;;;;;21.20;96179.00;;;;5067394;28;20211;-87
2023/07/26 08:30:39;;;;;;;1.57;1.00;;;;;21.70;96171.00;;;;5065459;28;20200;-86
2023/07/26 08:33:28;;;;;;;0.90;0.70;;;;;21.40;96188.00;;;;5067346;28;20227;-84
2023/07/26 08:36:18;;;;;;;1.93;1.10;;;;;21.00;96197.00;;;;5066934;28;20266;-87
2023/07/26 08:39:07;;;;;;;0.90;0.80;;;;;21.40;96209.00;;;;5066166;28;20203;-86
2023/07/26 08:41:57;;;;;;;0.70;0.60;;;;;21.60;96196.00;;;;5062693;28;20214;-85
2023/07/26 08:44:50;;;;;;;1.23;0.77;;;;;21.90;96187.00;;;;5063306;28;20216;-86
2023/07/26 08:47:40;;;;;;;1.23;0.70;;;;;22.00;96204.00;;;;5067354;28;20208;-86
2023/07/26 08:50:29;;;;;;;1.27;0.90;;;;;22.50;96197.00;;;;5062459;28;20196;-85
2023/07/26 08:53:18;;;;;;;0.90;0.90;;;;;22.10;96209.00;;;;5066240;28;20589;-88
2023/07/26 08:56:08;;;;;;;1.77;0.70;;;;;22.20;96202.00;;;;5059303;28;20223;-88
2023/07/26 08:58:57;;;;;;;0.60;0.50;;;;;21.50;96193.00;;;;5063904;28;20595;-89
2023/07/26 09:01:48;;;;;;;1.03;0.70;;;;;21.20;96205.00;;;;5063290;28;20709;-89
2023/07/26 09:04:48;;;;;;;0.67;0.67;;;;;22.10;96207.00;;;;5064076;28;20218;-88
2023/07/26 09:07:37;;;;;;;0.67;0.50;;;;;22.30;96216.00;;;;5063551;28;20195;-88
2023/07/26 09:10:28;;;;;;;0.70;0.70;;;;;20.70;96206.00;;;;5064412;28;20675;-89
2023/07/26 09:13:17;;;;;;;0.50;0.50;;;;;21.60;96235.00;;;;5062768;28;20734;-89
2023/07/26 09:16:06;;;;;;;0.87;0.87;;;;;21.70;96229.00;;;;5064971;28;20227;-90
2023/07/26 09:19:01;;;;;;;0.80;0.57;;;;;21.00;96241.00;;;;5066714;28;20204;-88
2023/07/26 09:21:51;;;;;;;0.80;0.70;;;;;21.30;96228.00;;;;5060946;28;20204;-90
2023/07/26 09:24:41;;;;;;;0.63;0.63;;;;;20.60;96253.00;;;;5064823;28;20220;-88
2023/07/26 09:27:30;;;;;;;0.60;0.50;;;;;21.70;96256.00;;;;5063545;28;20736;-87
2023/07/26 09:30:21;;;;;;;2.20;0.60;;;;;22.10;96245.00;;;;5059738;28;20207;-89
2023/07/26 09:33:13;;;;;;;1.40;0.70;;;;;22.10;96247.00;;;;5060978;28;20211;-89
2023/07/26 09:36:06;;;;;;;0.87;0.80;;;;;22.60;96248.00;;;;5066950;28;20227;-89
2023/07/26 09:38:56;;;;;;;0.50;0.50;;;;;21.30;96250.00;;;;5058659;28;20666;-87
2023/07/26 09:41:46;;;;;;;0.40;0.40;;;;;21.20;96262.00;;;;5064117;28;20196;-89
2023/07/26 09:44:36;;;;;;;0.63;0.50;;;;;22.30;96253.00;;;;5060286;28;20281;-87
2023/07/26 09:47:35;;;;;;;0.60;0.60;;;;;21.40;96262.00;;;;5064326;28;20222;-86
2023/07/26 09:50:29;;;;;;;0.50;0.50;;;;;21.70;96248.00;;;;5059552;28;20208;-88
2023/07/26 09:53:23;;;;;;;0.57;0.57;;;;;20.80;96275.00;;;;5063058;28;20205;-92
2023/07/26 09:56:13;;;;;;;0.63;0.60;;;;;22.50;96280.00;;;;5060079;28;20728;-89
2023/07/26 09:59:03;;;;;;;0.47;0.43;;;;;22.70;96287.00;;;;5062740;28;20301;-89
2023/07/26 10:01:53;;;;;;;0.77;0.77;;;;;22.70;96283.00;;;;5066470;28;20214;-88
2023/07/26 10:04:50;;;;;;;5.70;0.80;;;;;20.60;96261.00;;;;5061460;28;20216;-87
2023/07/26 10:07:40;;;;;;;0.93;0.60;;;;;21.10;96287.00;;;;5065294;28;20216;-85
2023/07/26 10:10:31;;;;;;;0.53;0.53;;;;;22.30;96282.00;;;;5059408;28;20205;-89
2023/07/26 10:13:22;;;;;;;0.77;0.70;;;;;22.60;96284.00;;;;5058085;28;20200;-87
2023/07/26 10:16:11;;;;;;;0.50;0.50;;;;;23.70;96262.00;;;;5057271;28;20227;-89
2023/07/26 10:19:05;;;;;;;3.03;0.50;;;;;24.60;96263.00;;;;5060348;28;20200;-89
2023/07/26 10:21:54;;;;;;;1.03;0.60;;;;;25.20;96248.00;;;;5063970;28;20203;-88
2023/07/26 10:24:43;;;;;;;0.67;0.67;;;;;23.00;96249.00;;;;5063061;28;20228;-90
2023/07/26 10:27:34;;;;;;;0.77;0.77;;;;;24.00;96279.00;;;;5061601;28;20775;-89
2023/07/26 10:30:26;;;;;;;0.40;0.40;;;;;24.30;96278.00;;;;5062219;28;20207;-88
2023/07/26 10:33:15;;;;;;;0.60;0.43;;;;;24.00;96292.00;;;;5053332;28;20200;-87
2023/07/26 10:36:07;;;;;;;0.50;0.50;;;;;24.60;96296.00;;;;5065736;28;20239;-88
2023/07/26 10:38:56;;;;;;;0.30;0.20;;;;;22.70;96294.00;;;;5068782;28;20200;-85
2023/07/26 10:41:50;;;;;;;1.67;0.77;;;;;22.60;96287.00;;;;5067171;28;20203;-87
2023/07/26 10:44:42;;;;;;;1.40;0.50;;;;;23.40;96306.00;;;;5063412;28;20224;-88
2023/07/26 10:47:32;;;;;;;0.77;0.40;;;;;23.70;96304.00;;;;5065719;28;20208;-89
2023/07/26 10:50:26;;;;;;;0.50;0.40;;;;;22.70;96325.00;;;;5065822;28;20214;-86
2023/07/26 10:53:36;;;;;;;0.80;0.60;;;;;23.40;96335.00;;;;5069624;28;20215;-88
2023/07/26 10:56:27;;;;;;;0.50;0.50;;;;;22.00;96330.00;;;;5063646;28;20227;-89
2023/07/26 10:59:27;;;;;;;0.70;0.70;;;;;22.20;96330.00;;;;5061245;28;20211;-89
2023/07/26 11:02:24;;;;;;;1.13;0.73;;;;;22.60;96341.00;;;;5066825;28;20204;-89
2023/07/26 11:05:16;;;;;;;0.33;0.33;;;;;22.40;96326.00;;;;5063647;28;20239;-88
2023/07/26 11:08:05;;;;;;;0.60;0.60;;;;;22.60;96336.00;;;;5062250;28;20625;-88
2023/07/26 11:10:55;;;;;;;0.60;0.60;;;;;22.50;96338.00;;;;5066518;28;20595;-89
2023/07/26 11:13:44;;;;;;;0.40;0.40;;;;;22.60;96342.00;;;;5064751;28;20207;-89
2023/07/26 11:16:33;;;;;;;0.70;0.60;;;;;22.60;96321.00;;;;5062938;28;20235;-86
2023/07/26 11:19:24;;;;;;;1.07;0.73;;;;;22.80;96345.00;;;;5061990;28;20212;-88
2023/07/26 11:22:13;;;;;;;0.80;0.80;;;;;23.10;96333.00;;;;5057156;28;20220;-87
2023/07/26 11:25:05;;;;;;;24.77;11.20;;;;;23.20;96334.00;;;;5053957;28;20217;-87
2023/07/26 11:27:55;;;;;;;12.90;5.50;;;;;23.20;96323.00;;;;5064097;28;20693;-88
2023/07/26 11:30:48;;;;;;;11.70;5.47;;;;;23.20;96338.00;;;;5065376;28;20204;-88
2023/07/26 11:33:40;;;;;;;5.00;2.40;;;;;23.20;96335.00;;;;5060999;28;20210;-87
2023/07/26 11:36:30;;;;;;;0.70;0.70;;;;;23.30;96328.00;;;;5063856;28;20238;-87
2023/07/26 11:39:24;;;;;;;7.77;3.80;;;;;23.40;96333.00;;;;5054257;28;20333;-87
2023/07/26 11:42:17;;;;;;;0.43;0.43;;;;;23.40;96325.00;;;;5067637;28;20214;-87
2023/07/26 11:45:08;;;;;;;0.90;0.73;;;;;23.40;96331.00;;;;5066685;28;20610;-87
2023/07/26 11:47:57;;;;;;;0.30;0.30;;;;;23.40;96330.00;;;;5054391;28;20193;-87
2023/07/26 11:50:46;;;;;;;0.40;0.40;;;;;23.00;96323.00;;;;5069720;28;20207;-87
2023/07/26 11:53:41;;;;;;;1.17;0.80;;;;;23.40;96323.00;;;;5062473;28;20329;-88
2023/07/26 11:56:37;;;;;;;0.77;0.70;;;;;23.50;96324.00;;;;5062068;28;20267;-87
2023/07/26 11:59:26;;;;;;;1.70;0.53;;;;;23.80;96313.00;;;;5061883;28;20199;-89
2023/07/26 12:02:26;;;;;;;0.67;0.40;;;;;23.50;96294.00;;;;5064741;28;20208;-88
2023/07/26 12:05:16;;;;;;;1.23;0.60;;;;;24.20;96279.00;;;;5061131;28;20720;-85
2023/07/26 12:08:07;;;;;;;0.70;0.70;;;;;25.60;96285.00;;;;5066522;28;20208;-89
2023/07/26 12:10:58;;;;;;;0.40;0.40;;;;;26.20;96260.00;;;;5060971;28;20204;-90
2023/07/26 12:13:47;;;;;;;0.80;0.50;;;;;26.70;96277.00;;;;5064957;28;20212;-86
2023/07/26 12:16:37;;;;;;;1.10;0.50;;;;;25.90;96286.00;;;;5066970;28;20231;-88
2023/07/26 12:19:27;;;;;;;0.50;0.43;;;;;27.20;96249.00;;;;5056154;28;20203;-89
2023/07/26 12:22:16;;;;;;;0.57;0.57;;;;;27.80;96271.00;;;;5066330;28;20196;-91
2023/07/26 12:25:07;;;;;;;0.67;0.67;;;;;28.00;96310.00;;;;5062887;28;20225;-89
2023/07/26 12:27:57;;;;;;;0.83;0.50;;;;;27.10;96271.00;;;;5064840;28;20908;-89
2023/07/26 12:30:54;;;;;;;1.47;0.70;;;;;27.40;96267.00;;;;5058608;28;20663;-86
2023/07/26 12:33:58;;;;;;;0.37;0.37;;;;;27.40;96270.00;;;;5057914;28;20210;-86
2023/07/26 12:36:50;;;;;;;2.97;0.90;;;;;24.90;96318.00;;;;5053776;28;20220;-84
2023/07/26 12:39:39;;;;;;;0.60;0.47;;;;;24.80;96347.00;;;;5063567;28;20281;-88
2023/07/26 12:42:36;;;;;;;1.93;0.60;;;;;25.00;96337.00;;;;5065341;28;20204;-87
2023/07/26 12:45:27;;;;;;;2.23;1.00;;;;;25.30;96344.00;;;;5062676;28;20427;-87
2023/07/26 12:48:19;;;;;;;2.63;1.17;;;;;25.10;96351.00;;;;5063167;28;20594;-88
2023/07/26 12:51:10;;;;;;;3.80;2.20;;;;;24.90;96356.00;;;;5066633;28;20203;-88
2023/07/26 12:54:01;;;;;;;0.87;0.87;;;;;24.50;96374.00;;;;5054056;28;20209;-88
2023/07/26 12:57:16;;;;;;;2.63;1.77;;;;;24.20;96356.00;;;;5063797;28;20707;-87
2023/07/26 13:00:19;;;;;;;2.10;0.97;;;;;24.80;96351.00;;;;5057803;28;20195;-87
2023/07/26 13:03:09;;;;;;;2.70;1.50;;;;;25.40;96356.00;;;;5066071;28;20198;-88
2023/07/26 13:05:59;;;;;;;1.43;1.00;;;;;25.80;96365.00;;;;5063059;28;20650;-88
2023/07/26 13:08:48;;;;;;;0.60;0.60;;;;;24.90;96370.00;;;;5065814;28;20687;-88
2023/07/26 13:11:37;;;;;;;2.80;0.80;;;;;24.90;96361.00;;;;5053709;28;20205;-87
2023/07/26 13:14:27;;;;;;;0.90;0.70;;;;;23.70;96351.00;;;;5059631;28;20193;-89
2023/07/26 13:17:16;;;;;;;1.23;0.60;;;;;25.00;96365.00;;;;5066782;28;20219;-87
2023/07/26 13:20:07;;;;;;;0.90;0.70;;;;;25.20;96360.00;;;;5058868;28;20218;-87
2023/07/26 13:22:56;;;;;;;0.77;0.60;;;;;26.50;96361.00;;;;5055237;28;20214;-88
2023/07/26 13:25:47;;;;;;;0.80;0.63;;;;;26.60;96361.00;;;;5063335;28;21012;-86
2023/07/26 13:28:36;;;;;;;0.97;0.90;;;;;26.50;96376.00;;;;5062582;28;20211;-86
2023/07/26 13:31:25;;;;;;;0.97;0.67;;;;;26.10;96377.00;;;;5062638;28;20597;-86
2023/07/26 13:34:14;;;;;;;2.20;0.60;;;;;25.50;96382.00;;;;5058992;28;20638;-87
2023/07/26 13:37:06;;;;;;;0.90;0.63;;;;;24.60;96394.00;;;;5066990;28;20215;-87
2023/07/26 13:39:55;;;;;;;0.50;0.50;;;;;24.70;96390.00;;;;5064830;28;20208;-86
2023/07/26 13:42:45;;;;;;;0.40;0.40;;;;;24.70;96392.00;;;;5063701;28;20215;-85
2023/07/26 13:45:34;;;;;;;1.67;0.60;;;;;23.80;96388.00;;;;5063319;28;20230;-86
2023/07/26 13:48:23;;;;;;;0.50;0.50;;;;;23.50;96368.00;;;;5058680;28;20188;-85
2023/07/26 13:51:12;;;;;;;0.50;0.50;;;;;25.50;96364.00;;;;5058975;28;20205;-87
2023/07/26 13:54:02;;;;;;;0.30;0.30;;;;;26.80;96312.00;;;;5061144;28;20199;-86
2023/07/26 13:56:51;;;;;;;0.53;0.53;;;;;27.80;96340.00;;;;5056982;28;20226;-87
2023/07/26 13:59:40;;;;;;;0.40;0.30;;;;;28.30;96314.00;;;;5064007;28;20204;-87
2023/07/26 14:02:30;;;;;;;2.10;0.60;;;;;27.40;96389.00;;;;5062994;28;20260;-86
2023/07/26 14:05:19;;;;;;;0.40;0.30;;;;;26.60;96383.00;;;;5062980;28;20693;-86
2023/07/26 14:08:08;;;;;;;0.97;0.70;;;;;26.80;96387.00;;;;5058381;28;20751;-86
2023/07/26 14:10:58;;;;;;;0.93;0.57;;;;;26.60;96398.00;;;;5068259;28;20197;-86
2023/07/26 14:13:47;;;;;;;0.50;0.47;;;;;26.60;96306.00;;;;5068783;28;20663;-85